Time;durP1;ratioP1;P1;durP2;ratioP2;P2;SDS_P1;SDS_P2;PMS_P1;PMS_P2;Temp;Humidity;BMP_temperature;BMP_pressure;BME280_temperature;BME280_humidity;BME280_pressure;Samples;Min_cycle;Max_cycle;Signal;HPM_P1;HPM_P2
2023/03/11 00:01:11;;;;;;;13.10;8.70;;;;;;;6.34;65.69;97750.67;107463;1259;75141;-40
2023/03/11 00:03:39;;;;;;;12.80;9.10;;;;;;;6.34;65.63;97745.42;107433;1258;69905;-40
2023/03/11 00:06:08;;;;;;;12.60;9.20;;;;;;;6.34;65.48;97742.97;107362;1255;73809;-40
2023/03/11 00:08:37;;;;;;;12.00;8.80;;;;;;;6.33;65.53;97739.20;107341;1258;60312;-40
2023/03/11 00:11:08;;;;;;;12.50;8.90;;;;;;;6.32;65.51;97739.73;107334;1254;61179;-40
2023/03/11 00:13:40;;;;;;;11.70;9.70;;;;;;;6.28;65.56;97738.62;107433;1255;75009;-40
2023/03/11 00:16:08;;;;;;;11.50;9.00;;;;;;;6.24;65.62;97737.19;107458;1258;69941;-40
2023/03/11 00:18:39;;;;;;;12.00;8.90;;;;;;;6.20;65.69;97733.91;107398;1254;73686;-40
2023/03/11 00:21:14;;;;;;;10.80;8.60;;;;;;;6.20;65.55;97731.69;107458;1255;62401;-40
2023/03/11 00:23:42;;;;;;;13.80;8.70;;;;;;;6.23;65.50;97726.56;107478;1256;60431;-39
2023/03/11 00:26:11;;;;;;;13.10;8.90;;;;;;;6.21;65.55;97724.46;107423;1258;75195;-40
2023/03/11 00:28:39;;;;;;;12.50;9.10;;;;;;;6.19;65.56;97717.61;107328;1256;69926;-40
2023/03/11 00:31:12;;;;;;;13.20;9.20;;;;;;;6.16;65.51;97718.20;107423;1257;73571;-40
2023/03/11 00:34:00;;;;;;;12.10;9.20;;;;;;;6.13;65.55;97708.25;107415;1259;61828;-40
2023/03/11 00:36:30;;;;;;;11.80;9.40;;;;;;;6.07;65.73;97710.35;107507;1255;61621;-40
2023/03/11 00:39:01;;;;;;;12.70;9.30;;;;;;;6.05;65.71;97702.56;107334;1260;73951;-40
2023/03/11 00:41:29;;;;;;;10.50;8.40;;;;;;;6.02;65.90;97700.53;107298;1256;68639;-40
2023/03/11 00:43:58;;;;;;;11.60;8.60;;;;;;;6.00;65.88;97700.14;107291;1260;73991;-40
2023/03/11 00:46:27;;;;;;;11.10;7.90;;;;;;;6.00;65.87;97698.75;107251;1256;62412;-40
2023/03/11 00:48:57;;;;;;;11.30;8.40;;;;;;;6.04;65.82;97698.17;107266;1256;60808;-40
2023/03/11 00:51:27;;;;;;;12.80;8.90;;;;;;;6.05;65.76;97689.41;107313;1256;75045;-40
2023/03/11 00:53:55;;;;;;;12.90;9.20;;;;;;;6.05;65.77;97678.73;107254;1257;69701;-40
2023/03/11 00:56:24;;;;;;;11.10;8.70;;;;;;;6.03;65.76;97679.34;107251;1256;73951;-40
2023/03/11 00:58:54;;;;;;;11.80;8.00;;;;;;;6.02;65.82;97672.23;107325;1257;60811;-40
2023/03/11 01:01:23;;;;;;;12.30;8.90;;;;;;;6.00;65.77;97666.16;107287;1256;61223;-40
2023/03/11 01:03:51;;;;;;;9.60;7.40;;;;;;;6.00;65.69;97660.79;107296;1257;75043;-40
2023/03/11 01:06:20;;;;;;;11.30;8.80;;;;;;;6.00;65.90;97658.78;107276;1258;68642;-40
2023/03/11 01:08:50;;;;;;;11.00;8.40;;;;;;;6.00;65.64;97656.48;107474;1254;73959;-40
2023/03/11 01:11:21;;;;;;;12.30;7.60;;;;;;;6.02;65.75;97653.42;107463;1257;62351;-40
2023/03/11 01:13:50;;;;;;;10.70;8.10;;;;;;;6.07;65.60;97652.55;107458;1257;61701;-40
2023/03/11 01:16:20;;;;;;;11.10;8.10;;;;;;;6.09;65.65;97648.48;107468;1258;75027;-40
2023/03/11 01:18:50;;;;;;;10.70;7.80;;;;;;;6.11;65.56;97646.05;107450;1257;69593;-40
2023/03/11 01:21:19;;;;;;;11.50;8.00;;;;;;;6.10;65.39;97644.20;107322;1254;73874;-40
2023/03/11 01:23:48;;;;;;;10.40;8.80;;;;;;;6.09;65.44;97645.42;107316;1257;60923;-40
2023/03/11 01:26:16;;;;;;;10.80;8.10;;;;;;;6.09;65.39;97643.58;107157;1258;61533;-40
2023/03/11 01:28:45;;;;;;;13.00;8.90;;;;;;;6.08;65.43;97644.10;107366;1257;75082;-40
2023/03/11 01:31:14;;;;;;;10.60;7.80;;;;;;;5.99;65.40;97622.72;107347;1257;69929;-40
2023/03/11 01:33:43;;;;;;;12.70;8.40;;;;;;;6.04;65.56;97636.22;107465;1255;72767;-40
2023/03/11 01:36:12;;;;;;;12.30;7.50;;;;;;;6.00;65.68;97637.65;107468;1260;62302;-40
2023/03/11 01:38:40;;;;;;;11.70;7.40;;;;;;;6.03;65.71;97635.61;107438;1255;60555;-40
2023/03/11 01:41:10;;;;;;;10.60;8.20;;;;;;;6.06;65.68;97637.40;107301;1257;75007;-40
2023/03/11 01:43:40;;;;;;;;;;;;;;;6.07;65.62;97634.55;107337;1258;70918;-40
2023/03/11 01:46:14;;;;;;;12.50;7.70;;;;;;;6.02;65.70;97630.91;107461;1258;73871;-40
2023/03/11 01:48:50;;;;;;;10.70;8.10;;;;;;;5.98;65.90;97630.41;107452;1255;60350;-40
2023/03/11 01:51:26;;;;;;;13.80;8.50;;;;;;;6.00;65.88;97630.73;107287;1258;61146;-40
2023/03/11 01:54:03;;;;;;;13.30;8.10;;;;;;;6.00;65.72;97628.97;107151;1254;75039;-40
2023/03/11 01:56:32;;;;;;;10.50;8.00;;;;;;;5.98;65.67;97621.58;107451;1258;69011;-40
2023/03/11 01:59:01;;;;;;;18.20;7.60;;;;;;;5.97;65.75;97614.64;107461;1254;73665;-40
2023/03/11 02:01:30;;;;;;;9.30;6.90;;;;;;;5.91;65.78;97602.14;107419;1257;60633;-40
2023/03/11 02:04:02;;;;;;;12.00;7.60;;;;;;;6.04;65.60;97607.56;107255;1257;61223;-40
2023/03/11 02:06:32;;;;;;;11.20;7.60;;;;;;;6.07;65.60;97602.83;107239;1254;74585;-40
2023/03/11 02:09:01;;;;;;;10.30;7.70;;;;;;;6.09;65.56;97603.52;107506;1257;69940;-41
2023/03/11 02:11:32;;;;;;;10.80;7.50;;;;;;;6.09;65.53;97599.76;107426;1257;71457;-40
2023/03/11 02:14:03;;;;;;;7.60;5.80;;;;;;;6.08;65.55;97601.23;107264;1255;60833;-40
2023/03/11 02:16:32;;;;;;;12.30;8.50;;;;;;;6.07;65.47;97596.81;107275;1254;60447;-40
2023/03/11 02:19:11;;;;;;;;;;;;;;;6.05;65.38;97597.11;107484;1258;74127;-40
2023/03/11 02:21:40;;;;;;;13.10;8.40;;;;;;;5.98;65.60;97597.74;107294;1258;70210;-40
2023/03/11 02:24:18;;;;;;;10.30;7.80;;;;;;;5.94;65.82;97596.55;107416;1258;73543;-40
2023/03/11 02:26:58;;;;;;;11.30;7.20;;;;;;;5.98;65.76;97594.38;107312;1256;62488;-40
2023/03/11 02:29:30;;;;;;;10.10;7.70;;;;;;;6.07;65.69;97589.75;107324;1258;61558;-40
2023/03/11 02:32:05;;;;;;;11.30;8.60;;;;;;;6.08;65.71;97584.45;107095;1255;74914;-40
2023/03/11 02:34:35;;;;;;;12.20;8.50;;;;;;;6.11;65.74;97582.25;107203;1257;68780;-40
2023/03/11 02:37:05;;;;;;;11.80;8.70;;;;;;;6.13;65.78;97583.88;107384;1257;71154;-40
2023/03/11 02:39:36;;;;;;;14.10;9.50;;;;;;;6.15;65.73;97576.05;107449;1258;61019;-40
2023/03/11 02:42:14;;;;;;;15.00;9.10;;;;;;;6.16;65.82;97570.69;107442;1257;62001;-40
2023/03/11 02:44:44;;;;;;;12.60;9.40;;;;;;;6.17;65.74;97565.77;107419;1257;74106;-40
2023/03/11 02:47:12;;;;;;;;;;;;;;;6.17;65.87;97567.23;107077;1257;71056;-40
2023/03/11 02:49:41;;;;;;;12.00;8.50;;;;;;;6.17;65.90;97557.92;107215;1257;71515;-40
2023/03/11 02:52:11;;;;;;;12.70;8.40;;;;;;;6.19;65.91;97556.85;107254;1257;60453;-41
2023/03/11 02:54:40;;;;;;;12.80;9.20;;;;;;;6.21;65.85;97551.18;107389;1255;61391;-40
2023/03/11 02:57:09;;;;;;;11.10;8.70;;;;;;;6.20;65.77;97548.26;107460;1256;75129;-40
2023/03/11 02:59:39;;;;;;;;;;;;;;;6.18;65.79;97542.48;107383;1258;70100;-40
2023/03/11 03:02:08;;;;;;;13.50;9.40;;;;;;;6.11;66.20;97539.13;107498;1257;73687;-40
2023/03/11 03:04:38;;;;;;;12.00;8.60;;;;;;;6.04;66.43;97541.31;107465;1255;60513;-40
2023/03/11 03:07:07;;;;;;;14.00;9.40;;;;;;;6.03;66.33;97538.38;107500;1256;61420;-40
2023/03/11 03:09:38;;;;;;;12.90;8.70;;;;;;;6.02;66.52;97537.61;107181;1258;74788;-41
2023/03/11 03:12:07;;;;;;;11.80;8.80;;;;;;;6.05;66.58;97533.64;107369;1257;69686;-40
2023/03/11 03:14:36;;;;;;;15.10;9.00;;;;;;;6.11;66.55;97531.91;107247;1257;72843;-40
2023/03/11 03:17:05;;;;;;;13.30;9.40;;;;;;;6.13;66.45;97525.63;107431;1258;60491;-40
2023/03/11 03:19:34;;;;;;;13.50;9.60;;;;;;;6.11;66.61;97519.45;107540;1257;60297;-40
2023/03/11 03:22:03;;;;;;;13.90;9.60;;;;;;;6.09;66.64;97523.14;107492;1257;75033;-40
2023/03/11 03:24:33;;;;;;;12.60;9.20;;;;;;;6.07;66.83;97519.95;107508;1254;68866;-40
2023/03/11 03:27:04;;;;;;;12.60;9.80;;;;;;;6.03;66.89;97514.41;107446;1258;72586;-40
2023/03/11 03:29:33;;;;;;;15.70;9.70;;;;;;;5.99;67.06;97508.23;107275;1257;60545;-40
2023/03/11 03:32:02;;;;;;;13.40;9.40;;;;;;;5.99;67.21;97504.15;107302;1261;61496;-40
2023/03/11 03:34:31;;;;;;;11.30;9.00;;;;;;;6.04;67.04;97501.27;107317;1257;75028;-40
2023/03/11 03:36:59;;;;;;;14.60;9.60;;;;;;;6.05;67.23;97500.73;107283;1256;69920;-40
2023/03/11 03:39:28;;;;;;;13.40;9.50;;;;;;;6.03;67.30;97496.65;107331;1257;73997;-40
2023/03/11 03:41:58;;;;;;;;;;;;;;;6.01;67.38;97492.48;107216;1257;60456;-40
2023/03/11 03:44:30;;;;;;;15.20;9.70;;;;;;;5.94;67.60;97489.21;107364;1259;60518;-40
2023/03/11 03:46:59;;;;;;;13.90;10.60;;;;;;;5.88;68.01;97492.17;107217;1255;74847;-40
2023/03/11 03:49:28;;;;;;;12.60;9.70;;;;;;;5.87;68.04;97489.60;107444;1260;70409;-40
2023/03/11 03:51:56;;;;;;;13.30;9.80;;;;;;;5.85;68.15;97482.43;107363;1258;73602;-40
2023/03/11 03:54:29;;;;;;;13.50;9.40;;;;;;;5.87;68.15;97480.15;107440;1257;62078;-40
2023/03/11 03:57:00;;;;;;;13.50;9.60;;;;;;;5.92;68.17;97475.13;107284;1255;61990;-40
2023/03/11 03:59:28;;;;;;;14.30;9.80;;;;;;;5.95;68.18;97475.38;107491;1256;72873;-40
2023/03/11 04:01:58;;;;;;;;;;;;;;;5.95;68.29;97471.92;107466;1259;68941;-40
2023/03/11 04:04:29;;;;;;;13.70;9.90;;;;;;;5.88;68.56;97469.71;107461;1257;73610;-40
2023/03/11 04:06:58;;;;;;;13.80;10.20;;;;;;;5.81;68.81;97466.58;107241;1257;60527;-40
2023/03/11 04:09:28;;;;;;;14.70;10.90;;;;;;;5.81;68.90;97463.27;107125;1257;61531;-41
2023/03/11 04:11:58;;;;;;;12.90;9.40;;;;;;;5.80;68.99;97458.05;107209;1256;74999;-40
2023/03/11 04:14:28;;;;;;;12.60;9.30;;;;;;;5.83;68.84;97447.46;107468;1257;69762;-40
2023/03/11 04:17:03;;;;;;;15.80;10.40;;;;;;;5.88;68.67;97444.75;107414;1260;73938;-40
2023/03/11 04:19:32;;;;;;;13.20;10.40;;;;;;;5.87;68.52;97441.35;107542;1257;61255;-40
2023/03/11 04:22:01;;;;;;;13.70;10.50;;;;;;;5.84;68.63;97439.71;107465;1258;61206;-40
2023/03/11 04:24:32;;;;;;;13.70;10.30;;;;;;;5.80;68.89;97436.77;107484;1260;73852;-40
2023/03/11 04:27:01;;;;;;;13.90;10.40;;;;;;;5.72;69.03;97435.56;107390;1257;69990;-40
2023/03/11 04:29:31;;;;;;;15.70;10.70;;;;;;;5.65;69.42;97433.20;107449;1256;73615;-40
2023/03/11 04:31:59;;;;;;;14.00;9.80;;;;;;;5.62;69.56;97431.50;107194;1257;62716;-40
2023/03/11 04:34:29;;;;;;;15.00;10.70;;;;;;;5.65;69.60;97431.66;107450;1256;61532;-40
2023/03/11 04:37:00;;;;;;;14.60;10.70;;;;;;;5.65;69.70;97428.91;107430;1257;74718;-40
2023/03/11 04:39:31;;;;;;;14.60;9.90;;;;;;;5.61;69.94;97428.34;107398;1260;69742;-40
2023/03/11 04:42:01;;;;;;;;;;;;;;;5.61;69.95;97424.65;107439;1258;73816;-40
2023/03/11 04:44:34;;;;;;;16.50;10.90;;;;;;;5.54;70.18;97417.92;107473;1258;60845;-40
2023/03/11 04:47:06;;;;;;;19.30;11.80;;;;;;;5.49;70.50;97417.34;107253;1258;60401;-40
2023/03/11 04:49:35;;;;;;;16.80;11.70;;;;;;;5.54;70.59;97415.15;107321;1260;74722;-40
2023/03/11 04:52:04;;;;;;;18.10;11.00;;;;;;;5.63;70.53;97408.54;107315;1257;69850;-41
2023/03/11 04:54:32;;;;;;;17.10;12.00;;;;;;;5.67;70.31;97407.27;107383;1260;73860;-40
2023/03/11 04:57:00;;;;;;;16.70;11.60;;;;;;;5.69;70.24;97404.59;107181;1260;61375;-40
2023/03/11 04:59:30;;;;;;;16.00;11.60;;;;;;;5.70;70.34;97397.45;107397;1260;61224;-40
2023/03/11 05:01:58;;;;;;;19.50;11.90;;;;;;;5.71;70.26;97394.60;107344;1258;75300;-40
2023/03/11 05:04:27;;;;;;;16.30;11.50;;;;;;;5.69;70.31;97392.67;107226;1261;70054;-40
2023/03/11 05:06:56;;;;;;;15.90;10.20;;;;;;;5.70;70.40;97389.61;107228;1257;72655;-41
2023/03/11 05:09:26;;;;;;;14.60;10.60;;;;;;;5.70;70.38;97384.70;107398;1257;61389;-41
2023/03/11 05:11:55;;;;;;;17.50;11.90;;;;;;;5.67;70.58;97380.22;107399;1260;61184;-41
2023/03/11 05:14:25;;;;;;;16.30;11.50;;;;;;;5.66;70.69;97376.21;107420;1256;75023;-41
2023/03/11 05:16:55;;;;;;;;;;;;;;;5.65;70.77;97373.30;107254;1257;68044;-41
2023/03/11 05:19:30;;;;;;;16.50;11.10;;;;;;;5.64;70.78;97369.30;107463;1258;72474;-41
2023/03/11 05:22:01;;;;;;;18.30;11.80;;;;;;;5.67;70.89;97357.95;107419;1257;61424;-41
2023/03/11 05:24:30;;;;;;;15.50;11.40;;;;;;;5.70;70.98;97354.89;107247;1260;61278;-41
2023/03/11 05:27:03;;;;;;;16.70;11.50;;;;;;;5.69;70.99;97349.90;107454;1258;73782;-41
2023/03/11 05:29:34;;;;;;;16.40;12.20;;;;;;;5.67;71.19;97343.58;107552;1261;69819;-42
2023/03/11 05:32:04;;;;;;;12.40;9.40;;;;;;;5.64;71.20;97343.17;107461;1257;73653;-41
2023/03/11 05:34:32;;;;;;;17.40;11.90;;;;;;;5.66;71.37;97339.11;107295;1257;62238;-41
2023/03/11 05:37:01;;;;;;;17.00;11.70;;;;;;;5.72;71.16;97342.08;107443;1259;60338;-41
2023/03/11 05:39:36;;;;;;;17.10;12.30;;;;;;;5.75;71.01;97342.46;107441;1256;75069;-41
2023/03/11 05:42:06;;;;;;;18.00;13.00;;;;;;;5.74;71.07;97341.09;107252;1260;69681;-41
2023/03/11 05:44:35;;;;;;;18.00;13.20;;;;;;;5.74;71.07;97335.09;107245;1257;72561;-41
2023/03/11 05:47:04;;;;;;;17.00;12.20;;;;;;;5.71;71.00;97341.06;107236;1260;62402;-41
2023/03/11 05:49:33;;;;;;;17.90;12.50;;;;;;;5.74;70.99;97342.00;107493;1259;61163;-41
2023/03/11 05:52:02;;;;;;;17.90;12.30;;;;;;;5.78;70.98;97347.70;107463;1260;74713;-42
2023/03/11 05:54:31;;;;;;;21.90;13.20;;;;;;;5.77;70.95;97339.95;107272;1260;69977;-42
2023/03/11 05:57:04;;;;;;;17.80;12.70;;;;;;;5.76;70.96;97342.33;107419;1260;73749;-40
2023/03/11 05:59:34;;;;;;;19.60;13.70;;;;;;;5.76;71.01;97340.78;107414;1258;60299;-40
2023/03/11 06:02:04;;;;;;;16.90;12.80;;;;;;;5.74;71.16;97343.85;107456;1257;61332;-40
2023/03/11 06:04:34;;;;;;;17.30;12.60;;;;;;;5.76;71.08;97345.23;107219;1256;74301;-40
2023/03/11 06:07:03;;;;;;;17.40;12.40;;;;;;;5.81;71.10;97347.73;107207;1258;69153;-40
2023/03/11 06:09:35;;;;;;;20.90;13.20;;;;;;;5.81;71.08;97349.34;107340;1258;73926;-40
2023/03/11 06:12:05;;;;;;;22.10;13.60;;;;;;;5.82;71.15;97345.51;107293;1259;61604;-40
2023/03/11 06:14:47;;;;;;;20.60;13.60;;;;;;;5.83;71.17;97345.73;107355;1260;60331;-40
2023/03/11 06:17:16;;;;;;;;;;;;;;;5.81;71.32;97341.52;107322;1256;75235;-41
2023/03/11 06:19:45;;;;;;;18.00;13.10;;;;;;;5.82;71.33;97341.50;107294;1257;68597;-40
2023/03/11 06:22:13;;;;;;;20.00;12.10;;;;;;;5.86;71.40;97337.00;107344;1257;73907;-40
2023/03/11 06:24:42;;;;;;;18.60;12.80;;;;;;;5.90;71.27;97332.97;107432;1256;61616;-40
2023/03/11 06:27:12;;;;;;;21.80;13.50;;;;;;;5.94;71.12;97338.06;107461;1257;61352;-40
2023/03/11 06:29:41;;;;;;;22.10;14.50;;;;;;;5.94;71.08;97327.23;107372;1257;75283;-41
2023/03/11 06:32:10;;;;;;;20.10;13.20;;;;;;;5.95;71.18;97325.46;107373;1258;69700;-40
2023/03/11 06:34:39;;;;;;;18.80;13.40;;;;;;;6.00;71.13;97312.65;107250;1260;73922;-39
2023/03/11 06:37:07;;;;;;;18.60;13.70;;;;;;;6.08;70.98;97306.70;107441;1256;61216;-40
2023/03/11 06:39:37;;;;;;;14.50;10.40;;;;;;;6.12;70.82;97300.63;107142;1260;60320;-40
2023/03/11 06:42:09;;;;;;;19.70;14.30;;;;;;;6.14;70.87;97301.32;107480;1255;73605;-40
2023/03/11 06:44:38;;;;;;;18.60;14.20;;;;;;;6.13;70.71;97299.64;107277;1257;70238;-40
2023/03/11 06:47:06;;;;;;;22.30;14.80;;;;;;;6.15;71.00;97293.17;107422;1257;73776;-40
2023/03/11 06:49:39;;;;;;;20.20;14.00;;;;;;;6.18;70.84;97287.04;107305;1260;61925;-40
2023/03/11 06:52:08;;;;;;;21.20;13.00;;;;;;;6.26;70.78;97285.22;107095;1260;60898;-41
2023/03/11 06:54:38;;;;;;;23.00;14.30;;;;;;;6.31;70.80;97282.16;107095;1259;74910;-40
2023/03/11 06:57:07;;;;;;;21.70;15.50;;;;;;;6.32;70.68;97278.85;107119;1257;69665;-40
2023/03/11 06:59:36;;;;;;;19.20;14.00;;;;;;;6.31;70.61;97271.92;107254;1257;73354;-40
2023/03/11 07:02:09;;;;;;;19.00;14.10;;;;;;;6.32;70.47;97268.54;107165;1257;60837;-40
2023/03/11 07:04:38;;;;;;;17.80;13.20;;;;;;;6.32;70.49;97268.23;107104;1262;60997;-40
2023/03/11 07:07:07;;;;;;;19.00;13.40;;;;;;;6.27;70.63;97249.40;107060;1257;180520;-40
2023/03/11 07:11:49;;;;;;;20.00;14.20;;;;;;;6.41;71.15;97253.10;104368;1289;600967;-40
2023/03/11 07:14:24;;;;;;;22.40;15.60;;;;;;;6.39;71.25;97250.80;106812;1266;61300;-40
2023/03/11 07:16:55;;;;;;;21.30;14.40;;;;;;;6.38;71.52;97246.26;106750;1269;61254;-40
2023/03/11 07:19:32;;;;;;;21.30;13.80;;;;;;;6.40;71.80;97243.41;106783;1266;73726;-40
2023/03/11 07:22:01;;;;;;;24.90;15.00;;;;;;;6.43;72.08;97241.10;106785;1267;69973;-40
2023/03/11 07:24:29;;;;;;;21.30;15.40;;;;;;;6.45;72.53;97235.58;107177;1257;171895;-40
2023/03/11 07:26:58;;;;;;;20.80;14.70;;;;;;;6.44;72.79;97232.03;107433;1257;61574;-40
2023/03/11 07:29:26;;;;;;;20.60;14.60;;;;;;;6.43;73.05;97229.34;107402;1256;61287;-40
2023/03/11 07:31:54;;;;;;;23.00;14.90;;;;;;;6.44;73.33;97224.42;107429;1255;72697;-40
2023/03/11 07:34:24;;;;;;;21.30;15.40;;;;;;;6.45;73.68;97223.04;107347;1260;70042;-41
2023/03/11 07:36:54;;;;;;;22.90;15.80;;;;;;;6.42;74.10;97217.98;107335;1257;73594;-40
2023/03/11 07:39:23;;;;;;;26.90;16.20;;;;;;;6.42;74.29;97206.97;107339;1257;61192;-41
2023/03/11 07:41:51;;;;;;;25.40;16.60;;;;;;;6.44;74.60;97202.20;107283;1255;61364;-41
2023/03/11 07:44:20;;;;;;;22.30;16.60;;;;;;;6.51;74.69;97201.81;107327;1256;74162;-41
2023/03/11 07:46:48;;;;;;;22.30;16.00;;;;;;;6.56;74.91;97191.75;107363;1257;69945;-41
2023/03/11 07:49:20;;;;;;;25.20;16.50;;;;;;;6.55;74.75;97185.20;107345;1260;72544;-41
2023/03/11 07:51:50;;;;;;;25.30;16.50;;;;;;;6.52;74.88;97181.05;107412;1256;63007;-41
2023/03/11 07:54:18;;;;;;;24.40;16.60;;;;;;;6.56;75.01;97174.97;107447;1256;61463;-41
2023/03/11 07:56:48;;;;;;;23.40;17.10;;;;;;;6.55;75.06;97150.43;107430;1256;74276;-41
2023/03/11 07:59:17;;;;;;;24.00;18.20;;;;;;;6.61;74.85;97153.66;107396;1257;69934;-41
2023/03/11 08:01:46;;;;;;;24.30;16.90;;;;;;;6.59;75.02;97152.59;107497;1259;73856;-41
2023/03/11 08:04:15;;;;;;;25.50;16.80;;;;;;;6.61;75.08;97144.90;107472;1255;61045;-41
2023/03/11 08:06:45;;;;;;;21.20;16.30;;;;;;;6.64;74.81;97145.44;107448;1256;61640;-41
2023/03/11 08:09:14;;;;;;;25.80;17.10;;;;;;;6.64;75.03;97144.20;107468;1257;72770;-41
2023/03/11 08:11:43;;;;;;;22.00;13.50;;;;;;;6.63;74.67;97141.60;107470;1257;68946;-41
2023/03/11 08:14:11;;;;;;;24.40;17.20;;;;;;;6.61;74.93;97143.66;107475;1257;73564;-40
2023/03/11 08:16:41;;;;;;;23.60;16.70;;;;;;;6.64;75.16;97141.05;107439;1257;63546;-41
2023/03/11 08:19:11;;;;;;;26.20;18.10;;;;;;;6.69;75.13;97137.89;107487;1256;61487;-41
2023/03/11 08:21:39;;;;;;;28.40;18.70;;;;;;;6.70;75.25;97131.19;107703;1251;74275;-41
2023/03/11 08:24:10;;;;;;;;;;;;;;;6.70;75.66;97126.11;107710;1251;69962;-41
2023/03/11 08:26:39;;;;;;;;;;;;;;;6.66;76.00;97123.35;107730;1251;74966;-41
2023/03/11 08:29:10;;;;;;;30.70;17.30;;;;;;;6.64;76.28;97125.34;107730;1251;61244;-41
2023/03/11 08:31:38;;;;;;;27.00;18.60;;;;;;;6.65;76.55;97122.83;107706;1251;60204;-41
2023/03/11 08:34:09;;;;;;;27.20;18.60;;;;;;;6.68;76.92;97117.19;107721;1252;73878;-41
2023/03/11 08:36:38;;;;;;;23.00;17.00;;;;;;;6.68;77.17;97118.58;107727;1251;68547;-41
2023/03/11 08:39:07;;;;;;;24.60;17.50;;;;;;;6.74;77.31;97118.41;107743;1251;73901;-41
2023/03/11 08:41:35;;;;;;;26.20;19.20;;;;;;;6.79;77.30;97114.55;107717;1256;61546;-41
2023/03/11 08:44:04;;;;;;;30.00;18.90;;;;;;;6.78;77.50;97113.25;107760;1251;61182;-41
2023/03/11 08:46:35;;;;;;;26.10;18.20;;;;;;;6.76;77.88;97112.33;107672;1255;74057;-41
2023/03/11 08:49:04;;;;;;;25.40;18.10;;;;;;;6.80;78.26;97103.86;107781;1251;69784;-41
2023/03/11 08:51:33;;;;;;;25.90;18.30;;;;;;;6.79;78.36;97103.23;107707;1251;73861;-41
2023/03/11 08:54:08;;;;;;;25.20;18.60;;;;;;;6.75;78.63;97095.41;107683;1251;61357;-41
2023/03/11 08:56:38;;;;;;;23.50;16.90;;;;;;;6.75;78.98;97088.86;107721;1251;61447;-41
2023/03/11 08:59:07;;;;;;;25.60;17.50;;;;;;;6.81;79.50;97088.00;107597;1251;74238;-41
2023/03/11 09:01:36;;;;;;;;;;;;;;;6.79;80.04;97081.15;107611;1251;69910;-41
2023/03/11 09:04:05;;;;;;;23.80;16.90;;;;;;;6.69;80.83;97074.88;107599;1251;73903;-41
2023/03/11 09:06:36;;;;;;;21.40;16.10;;;;;;;6.67;81.32;97067.65;107651;1251;63159;-41
2023/03/11 09:09:04;;;;;;;24.50;17.60;;;;;;;6.73;81.76;97059.25;107665;1251;61524;-41
2023/03/11 09:11:36;;;;;;;26.20;18.60;;;;;;;6.77;82.08;97051.77;107765;1251;74233;-41
2023/03/11 09:14:11;;;;;;;26.60;18.10;;;;;;;6.79;82.24;97053.70;107701;1251;69911;-41
2023/03/11 09:16:42;;;;;;;24.70;16.90;;;;;;;6.86;82.36;97049.89;107625;1251;72612;-41
2023/03/11 09:19:10;;;;;;;24.40;17.40;;;;;;;6.90;82.36;97044.04;107669;1255;61591;-41
2023/03/11 09:21:38;;;;;;;21.90;16.40;;;;;;;6.88;82.46;97038.88;107717;1251;61799;-41
2023/03/11 09:24:07;;;;;;;23.80;16.90;;;;;;;6.87;82.62;97029.34;107723;1251;73992;-41
2023/03/11 09:26:44;;;;;;;24.50;17.10;;;;;;;6.89;82.71;97026.49;107700;1251;69806;-41
2023/03/11 09:29:13;;;;;;;24.90;17.80;;;;;;;6.86;82.74;97025.67;107701;1251;73889;-41
2023/03/11 09:31:41;;;;;;;23.50;16.10;;;;;;;6.81;83.19;97023.98;107674;1251;62218;-41
2023/03/11 09:34:11;;;;;;;25.50;17.70;;;;;;;6.83;83.29;97024.44;107660;1251;61516;-41
2023/03/11 09:36:43;;;;;;;25.20;17.50;;;;;;;6.84;83.45;97018.13;107699;1251;74250;-41
2023/03/11 09:39:11;;;;;;;25.50;17.40;;;;;;;6.74;83.40;97001.85;107664;1251;69744;-41
2023/03/11 09:41:57;;;;;;;22.70;16.70;;;;;;;6.81;83.44;97010.06;107613;1251;73775;-41
2023/03/11 09:44:41;;;;;;;26.50;18.50;;;;;;;6.80;83.65;97004.60;107627;1251;61592;-41
2023/03/11 09:47:21;;;;;;;25.00;17.70;;;;;;;6.70;83.79;96995.11;107590;1251;61247;-41
2023/03/11 09:50:02;;;;;;;22.90;16.60;;;;;;;6.77;84.14;97001.69;107647;1251;73930;-41
2023/03/11 09:52:39;;;;;;;25.40;18.10;;;;;;;6.82;84.05;96996.28;107670;1251;69928;-41
2023/03/11 09:55:48;;;;;;;24.80;17.20;;;;;;;6.81;84.16;96994.90;107682;1251;74015;-41
2023/03/11 09:58:35;;;;;;;23.90;17.30;;;;;;;6.83;84.28;96992.13;107417;1251;62153;-41
2023/03/11 10:01:27;;;;;;;25.00;18.50;;;;;;;6.89;84.23;96981.39;107690;1251;61535;-41
2023/03/11 10:04:22;;;;;;;27.80;19.00;;;;;;;6.86;83.88;96972.88;107708;1251;73918;-41
2023/03/11 10:06:51;;;;;;;24.70;18.00;;;;;;;6.75;83.87;96970.84;107687;1252;69922;-41
2023/03/11 10:09:28;;;;;;;24.80;18.80;;;;;;;6.72;83.85;96965.18;107643;1251;73974;-41
2023/03/11 10:12:15;;;;;;;29.20;20.80;;;;;;;6.70;84.02;96961.10;107602;1254;61589;-40
2023/03/11 10:14:57;;;;;;;29.90;20.30;;;;;;;6.65;83.96;96967.27;107557;1254;61420;-40
2023/03/11 10:17:31;;;;;;;28.20;19.90;;;;;;;6.66;83.92;96973.90;107558;1254;74222;-40
2023/03/11 10:20:11;;;;;;;29.10;20.20;;;;;;;6.75;84.05;96980.08;107542;1254;69702;-40
2023/03/11 10:22:56;;;;;;;30.40;21.30;;;;;;;6.81;84.01;96971.81;107546;1253;72904;-40
2023/03/11 10:25:28;;;;;;;30.70;18.80;;;;;;;6.85;83.92;96962.73;107538;1253;62736;-41
2023/03/11 10:28:20;;;;;;;25.30;17.70;;;;;;;6.90;83.79;96964.61;107535;1254;61435;-40
2023/03/11 10:30:51;;;;;;;24.70;18.00;;;;;;;7.01;83.75;96950.33;107409;1254;74266;-41
2023/03/11 10:33:36;;;;;;;24.30;18.60;;;;;;;7.01;83.56;96942.48;107494;1259;68854;-40
2023/03/11 10:36:08;;;;;;;23.60;17.50;;;;;;;7.01;83.71;96932.93;107565;1254;73867;-40
2023/03/11 10:38:41;;;;;;;21.70;16.20;;;;;;;7.02;83.69;96925.99;107483;1253;63169;-40
2023/03/11 10:41:19;;;;;;;26.10;18.40;;;;;;;7.08;83.57;96925.58;107572;1254;61618;-40
2023/03/11 10:43:53;;;;;;;19.50;14.40;;;;;;;7.07;83.74;96923.89;107525;1254;73627;-40
2023/03/11 10:46:25;;;;;;;24.50;17.10;;;;;;;7.03;83.98;96920.83;107461;1254;69678;-40
2023/03/11 10:48:54;;;;;;;23.70;17.00;;;;;;;7.07;83.98;96911.72;107528;1254;74491;-40
2023/03/11 10:51:30;;;;;;;24.30;17.80;;;;;;;7.14;83.89;96906.91;107584;1254;61550;-40
2023/03/11 10:53:59;;;;;;;24.00;17.90;;;;;;;7.14;83.96;96898.13;107600;1254;61304;-40
2023/03/11 10:56:34;;;;;;;20.50;14.90;;;;;;;7.07;84.03;96894.17;107642;1253;74337;-40
2023/03/11 10:59:17;;;;;;;22.30;17.40;;;;;;;7.06;84.20;96886.80;107599;1254;68680;-40
2023/03/11 11:02:00;;;;;;;22.70;17.60;;;;;;;6.99;84.29;96877.07;107581;1254;73652;-40
2023/03/11 11:04:35;;;;;;;24.70;16.90;;;;;;;7.04;84.38;96879.27;107588;1254;63770;-41
2023/03/11 11:07:34;;;;;;;24.00;17.70;;;;;;;7.03;84.32;96872.19;107673;1254;59643;-40
2023/03/11 11:10:21;;;;;;;23.40;17.60;;;;;;;7.04;84.10;96872.34;107555;1252;74502;-41
2023/03/11 11:12:59;;;;;;;22.40;16.00;;;;;;;6.99;84.40;96864.82;107680;1255;69918;-41
2023/03/11 11:15:35;;;;;;;21.70;15.20;;;;;;;7.01;84.47;96870.05;107701;1251;73521;-40
2023/03/11 11:18:26;;;;;;;23.70;16.90;;;;;;;7.07;84.69;96863.00;107733;1251;59582;-40
2023/03/11 11:21:12;;;;;;;24.00;17.40;;;;;;;7.08;84.30;96859.84;107689;1251;60376;-40
2023/03/11 11:23:59;;;;;;;23.50;16.90;;;;;;;7.01;84.58;96856.51;107697;1251;73573;-40
2023/03/11 11:26:28;;;;;;;21.80;16.60;;;;;;;7.06;84.65;96847.61;107754;1251;69678;-40
2023/03/11 11:29:08;;;;;;;23.50;17.20;;;;;;;7.08;84.69;96843.76;107753;1251;73781;-40
2023/03/11 11:31:48;;;;;;;22.70;16.90;;;;;;;7.10;84.84;96845.42;107727;1255;60600;-41
2023/03/11 11:34:32;;;;;;;19.10;15.20;;;;;;;7.09;85.05;96843.27;107680;1251;61565;-41
2023/03/11 11:37:04;;;;;;;22.10;15.70;;;;;;;7.11;85.08;96837.10;107692;1251;75114;-41
2023/03/11 11:39:50;;;;;;;22.10;16.20;;;;;;;7.13;85.11;96831.69;107705;1251;69780;-40
2023/03/11 11:42:19;;;;;;;22.90;16.20;;;;;;;7.15;85.33;96836.45;107703;1251;72290;-41
2023/03/11 11:44:55;;;;;;;20.70;14.90;;;;;;;7.16;85.60;96832.68;107704;1252;62821;-41
2023/03/11 11:47:29;;;;;;;20.90;15.60;;;;;;;7.22;85.23;96831.48;107678;1251;61520;-41